Skip to main content

Alcácer do Sal, Barrosinha

ID 1210776 · 38.3667, -8.4833 map

Latest reading · 2026-05-09 19:00 (Europe/Lisbon)

Temperature
16.5 °C
Humidity
73 %
Pressure
Precipitation
0.7 mm
Radiation
448 W/m²
Wind speed
20.9 km/h
Wind direction
W · West

24-hour history

Time (Europe/Lisbon) Temp Humidity Pressure Rain Wind Dir
2026-05-09 19:00 16.5 °C 73 % 0.7 mm 20.9 km/h W
2026-05-09 18:00 19.2 °C 58 % 0.0 mm 32.4 km/h W
2026-05-09 17:00 18.9 °C 62 % 0.0 mm 24.5 km/h W
2026-05-09 16:00 20.2 °C 57 % 0.0 mm 25.2 km/h SW
2026-05-09 15:00 20.4 °C 55 % 0.0 mm 26.3 km/h SW
2026-05-09 14:00 19.2 °C 58 % 0.0 mm 26.3 km/h SW
2026-05-09 13:00 19.3 °C 59 % 0.0 mm 28.4 km/h SW
2026-05-09 12:00 17.9 °C 66 % 0.0 mm 27.7 km/h SW
2026-05-09 11:00 17.4 °C 76 % 0.0 mm 22.7 km/h SW
2026-05-09 10:00 15.3 °C 89 % 0.0 mm 15.5 km/h SW
2026-05-09 09:00 13.7 °C 93 % 0.0 mm 8.6 km/h S
2026-05-09 08:00 12.5 °C 95 % 0.1 mm 13.0 km/h S
2026-05-09 07:00 12.4 °C 96 % 4.0 mm 7.2 km/h S
2026-05-09 06:00 13.3 °C 93 % 9.7 mm 18.0 km/h S
2026-05-09 05:00 13.2 °C 93 % 0.0 mm 17.6 km/h SE
2026-05-09 04:00 13.2 °C 93 % 0.0 mm 12.2 km/h SE
2026-05-09 03:00 12.9 °C 94 % 0.0 mm 18.4 km/h S
2026-05-09 02:00 12.8 °C 93 % 0.0 mm 15.8 km/h S
2026-05-09 01:00 12.7 °C 92 % 0.0 mm 8.6 km/h S
2026-05-09 00:00 13.2 °C 90 % 0.0 mm 11.2 km/h S
2026-05-08 23:00 14.0 °C 90 % 0.2 mm 21.6 km/h S
2026-05-08 22:00 14.2 °C 89 % 1.2 mm 24.8 km/h SE
2026-05-08 21:00 14.5 °C 87 % 0.5 mm 20.5 km/h S
2026-05-08 20:00 15.0 °C 84 % 0.2 mm 14.4 km/h S